Flight Track Log - Related Links

Times and Time Zones

All times are in EDT time to prevent confusion due to time zone crossing. See the PWA314 flight status page for this flight to view local times or setup timezone preferences in your user account.

Time Position Orientation Groundspeed Altitude Reporting Facility
EDT Latitude Longitude Course Direction KTS MPH feet Rate Location/Type
Sun 04:27:40 PM 43.7275 -91.0783 131° Southeast 270 311 10,500  Level Minneapolis Center
Sun 04:28:42 PM 43.6656 -90.9708 129° Southeast 344 396 11,900 1,452 Climbing Minneapolis Center
Sun 04:29:44 PM 43.5978 -90.8542 129° Southeast 372 428 13,500 1,191 Climbing Minneapolis Center
Sun 04:30:58 PM 43.5344 -90.7433 128° Southeast 383 441 14,600 1,226 Climbing Minneapolis Center
Sun 04:32:01 PM 43.4469 -90.5917 128° Southeast 393 452 16,300 1,221 Climbing Minneapolis Center
Sun 04:32:51 PM 43.4006 -90.5161 130° Southeast 397 457 16,900 375 Climbing Chicago Center
Sun 04:33:53 PM 43.3178 -90.3736 129° Southeast 400 460 17,000  Climbing Chicago Center
Sun 04:34:55 PM 43.2472 -90.2539 129° Southeast 402 463 16,900 -532 Descending Chicago Center
Sun 04:35:57 PM 43.1794 -90.1411 129° Southeast 389 448 15,900 -1,016 Descending Chicago Center
Sun 04:36:59 PM 43.1156 -90.0300 128° Southeast 384 442 14,800 -1,210 Descending Chicago Center
Sun 04:38:01 PM 43.0342 -89.8950 129° Southeast 385 443 13,400 -1,258 Descending Chicago Center
Sun 04:39:03 PM 42.9675 -89.7822 129° Southeast 383 441 12,200 -1,065 Descending Chicago Center
Sun 04:40:05 PM 42.9017 -89.6719 129° Southeast 378 435 11,200 -581 Descending Chicago Center
Sun 04:41:07 PM 42.8339 -89.5608 130° Southeast 380 437 11,000 -97 Descending Chicago Center
Sun 04:42:09 PM 42.7678 -89.4517 129° Southeast 377 434 11,000  Level Chicago Center
Sun 04:43:12 PM 42.6919 -89.3253 129° Southeast 373 429 11,000 -384 Level Chicago Center
Sun 04:44:14 PM 42.6278 -89.2194 129° Southeast 365 420 10,200 -871 Descending Chicago Center
Sun 04:45:16 PM 42.5742 -89.1306 129° Southeast 315 362 9,200 -1,355 Descending Chicago Center
Sun 04:46:18 PM 42.5372 -89.0403 119° Southeast 281 323 7,400 -1,597 Descending Chicago Center
Sun 04:47:20 PM 42.5092 -88.9447 112° Southeast 273 314 5,900 -1,113 Descending Chicago Center
Sun 04:48:22 PM 42.4811 -88.8517 112° Southeast 269 310 5,100 -435 Descending Chicago Center
Sun 04:49:24 PM 42.4475 -88.7422 113° Southeast 269 310 5,000 -48 Descending Chicago Center
Sun 04:50:26 PM 42.4197 -88.6497 112° Southeast 268 308 5,000  Level Chicago Center
Sun 04:51:28 PM 42.4094 -88.5533 98° East 269 310 5,000  Level Chicago Center
Sun 04:52:30 PM 42.4031 -88.4514 95° East 274 315 5,000  Level Chicago Center
Sun 04:53:32 PM 42.3797 -88.3533 108° East 273 314 5,000 -242 Level Chicago Center
Sun 04:54:34 PM 42.3539 -88.2411 107° East 271 312 4,500 -629 Descending Chicago Center
Sun 04:55:36 PM 42.3317 -88.1478 108° East 267 307 3,700 -726 Descending Chicago Center
Sun 04:56:38 PM 42.3022 -88.0542 113° Southeast 268 308 3,000 -339 Descending Chicago Center
Sun 04:57:40 PM 42.2608 -87.9883 130° Southeast 249 287 3,000 -288 Level Chicago Center
Sun 04:58:43 PM 42.2069 -87.9506 153° Southeast 234 269 2,400 -672 Descending Chicago Center
Sun 04:59:45 PM 42.1517 -87.9233 160° South 219 252 1,600 -774 Descending Chicago Center
Sun 05:01:00 PM 42.1143 -87.9015 151° Southeast  Level Estimated
Sun 05:08:00 PM 42.1143 -87.9015 151° Southeast  Level Estimated
Sun 05:09:00 PM 42.1143 -87.9015 151° Southeast  Level Estimated
Sun 05:10:00 PM 42.1143 -87.9015 151° Southeast  Level Estimated

Login

Don't have an account? Register now (free) for customized features, flight alerts, and more!